sensor_id;sensor_type;location;lat;lon;timestamp;pressure;altitude;pressure_sealevel;temperature;humidity
83815;BME280;73829;53.826;-3.034;2024-02-21T00:02:26;101385.79;;;17.63;57.69
83815;BME280;73829;53.826;-3.034;2024-02-21T00:04:57;101384.42;;;17.62;57.84
83815;BME280;73829;53.826;-3.034;2024-02-21T00:07:26;101383.71;;;17.62;57.83
83815;BME280;73829;53.826;-3.034;2024-02-21T00:09:57;101372.95;;;17.63;57.76
83815;BME280;73829;53.826;-3.034;2024-02-21T00:12:28;101372.31;;;17.61;57.65
83815;BME280;73829;53.826;-3.034;2024-02-21T00:14:59;101370.86;;;17.63;57.64
83815;BME280;73829;53.826;-3.034;2024-02-21T00:17:30;101369.17;;;17.66;57.58
83815;BME280;73829;53.826;-3.034;2024-02-21T00:20:02;101358.08;;;17.66;57.65
83815;BME280;73829;53.826;-3.034;2024-02-21T00:22:33;101352.58;;;17.67;57.66
83815;BME280;73829;53.826;-3.034;2024-02-21T00:25:02;101344.27;;;17.69;57.56
83815;BME280;73829;53.826;-3.034;2024-02-21T00:27:33;101329.41;;;17.70;57.41
83815;BME280;73829;53.826;-3.034;2024-02-21T00:30:02;101318.90;;;17.69;57.43
83815;BME280;73829;53.826;-3.034;2024-02-21T00:32:33;101310.57;;;17.71;57.36
83815;BME280;73829;53.826;-3.034;2024-02-21T00:35:05;101297.41;;;17.70;57.30
83815;BME280;73829;53.826;-3.034;2024-02-21T00:37:36;101296.95;;;17.68;57.53
83815;BME280;73829;53.826;-3.034;2024-02-21T00:40:06;101290.48;;;17.67;57.39
83815;BME280;73829;53.826;-3.034;2024-02-21T00:42:37;101286.55;;;17.68;57.38
83815;BME280;73829;53.826;-3.034;2024-02-21T00:45:09;101278.02;;;17.66;57.40
83815;BME280;73829;53.826;-3.034;2024-02-21T00:47:40;101274.36;;;17.64;57.26
83815;BME280;73829;53.826;-3.034;2024-02-21T00:50:12;101262.64;;;17.63;57.34
83815;BME280;73829;53.826;-3.034;2024-02-21T00:52:43;101262.16;;;17.62;57.53
83815;BME280;73829;53.826;-3.034;2024-02-21T00:55:15;101262.34;;;17.61;57.33
83815;BME280;73829;53.826;-3.034;2024-02-21T00:57:46;101253.92;;;17.60;57.32
83815;BME280;73829;53.826;-3.034;2024-02-21T01:00:15;101242.91;;;17.58;57.27
83815;BME280;73829;53.826;-3.034;2024-02-21T01:02:46;101240.05;;;17.59;57.45
83815;BME280;73829;53.826;-3.034;2024-02-21T01:05:17;101232.88;;;17.58;57.30
83815;BME280;73829;53.826;-3.034;2024-02-21T01:07:48;101214.79;;;17.57;57.37
83815;BME280;73829;53.826;-3.034;2024-02-21T01:10:19;101206.47;;;17.58;57.36
83815;BME280;73829;53.826;-3.034;2024-02-21T01:12:50;101192.14;;;17.61;57.27
83815;BME280;73829;53.826;-3.034;2024-02-21T01:15:22;101180.25;;;17.64;57.27
83815;BME280;73829;53.826;-3.034;2024-02-21T01:17:53;101158.05;;;17.64;57.27
83815;BME280;73829;53.826;-3.034;2024-02-21T01:20:24;101149.76;;;17.66;57.16
83815;BME280;73829;53.826;-3.034;2024-02-21T01:22:55;101148.88;;;17.65;57.19
83815;BME280;73829;53.826;-3.034;2024-02-21T01:25:24;101150.27;;;17.66;57.11
83815;BME280;73829;53.826;-3.034;2024-02-21T01:27:55;101151.64;;;17.67;56.95
83815;BME280;73829;53.826;-3.034;2024-02-21T01:30:24;101159.61;;;17.66;56.89
83815;BME280;73829;53.826;-3.034;2024-02-21T01:32:55;101159.61;;;17.66;57.10
83815;BME280;73829;53.826;-3.034;2024-02-21T01:35:26;101153.31;;;17.64;57.05
83815;BME280;73829;53.826;-3.034;2024-02-21T01:37:55;101147.24;;;17.62;56.96
83815;BME280;73829;53.826;-3.034;2024-02-21T01:40:26;101137.39;;;17.62;56.93
83815;BME280;73829;53.826;-3.034;2024-02-21T01:42:55;101126.20;;;17.60;57.09
83815;BME280;73829;53.826;-3.034;2024-02-21T01:45:26;101118.98;;;17.60;57.05
83815;BME280;73829;53.826;-3.034;2024-02-21T01:47:57;101113.96;;;17.57;57.05
83815;BME280;73829;53.826;-3.034;2024-02-21T01:50:29;101101.73;;;17.55;57.02
83815;BME280;73829;53.826;-3.034;2024-02-21T01:53:00;101100.19;;;17.55;57.12
83815;BME280;73829;53.826;-3.034;2024-02-21T01:55:32;101096.53;;;17.53;56.98
83815;BME280;73829;53.826;-3.034;2024-02-21T01:58:04;101090.08;;;17.52;57.07
83815;BME280;73829;53.826;-3.034;2024-02-21T02:00:35;101083.05;;;17.52;57.07
83815;BME280;73829;53.826;-3.034;2024-02-21T02:03:07;101075.52;;;17.51;57.18
83815;BME280;73829;53.826;-3.034;2024-02-21T02:05:48;101065.52;;;17.50;57.11
83815;BME280;73829;53.826;-3.034;2024-02-21T02:08:20;101064.71;;;17.48;57.18
83815;BME280;73829;53.826;-3.034;2024-02-21T02:10:52;101069.73;;;17.50;57.17
83815;BME280;73829;53.826;-3.034;2024-02-21T02:13:23;101063.80;;;17.54;57.12
83815;BME280;73829;53.826;-3.034;2024-02-21T02:15:52;101052.63;;;17.56;56.97
83815;BME280;73829;53.826;-3.034;2024-02-21T02:18:23;101043.73;;;17.59;56.85
83815;BME280;73829;53.826;-3.034;2024-02-21T02:20:54;101031.93;;;17.59;56.78
83815;BME280;73829;53.826;-3.034;2024-02-21T02:23:26;101022.64;;;17.58;56.85
83815;BME280;73829;53.826;-3.034;2024-02-21T02:25:58;101012.98;;;17.58;56.91
83815;BME280;73829;53.826;-3.034;2024-02-21T02:28:30;101002.42;;;17.58;56.85
83815;BME280;73829;53.826;-3.034;2024-02-21T02:31:01;100986.09;;;17.57;56.72
83815;BME280;73829;53.826;-3.034;2024-02-21T02:33:32;100974.66;;;17.57;56.85
83815;BME280;73829;53.826;-3.034;2024-02-21T02:36:01;100964.52;;;17.56;56.85
83815;BME280;73829;53.826;-3.034;2024-02-21T02:38:32;100956.89;;;17.57;56.86
83815;BME280;73829;53.826;-3.034;2024-02-21T02:41:01;100950.81;;;17.55;56.76
83815;BME280;73829;53.826;-3.034;2024-02-21T02:43:32;100939.03;;;17.55;56.74
83815;BME280;73829;53.826;-3.034;2024-02-21T02:46:03;100931.38;;;17.53;56.70
83815;BME280;73829;53.826;-3.034;2024-02-21T02:48:34;100919.65;;;17.51;56.83
83815;BME280;73829;53.826;-3.034;2024-02-21T02:51:03;100907.20;;;17.50;56.85
83815;BME280;73829;53.826;-3.034;2024-02-21T02:53:34;100898.74;;;17.50;56.90
83815;BME280;73829;53.826;-3.034;2024-02-21T02:56:04;100891.11;;;17.48;56.81
83815;BME280;73829;53.826;-3.034;2024-02-21T02:58:35;100888.08;;;17.49;56.76
83815;BME280;73829;53.826;-3.034;2024-02-21T03:01:06;100880.09;;;17.47;56.80
83815;BME280;73829;53.826;-3.034;2024-02-21T03:03:37;100871.27;;;17.47;56.85
83815;BME280;73829;53.826;-3.034;2024-02-21T03:06:06;100865.38;;;17.45;56.88
83815;BME280;73829;53.826;-3.034;2024-02-21T03:08:37;100847.63;;;17.44;56.97
83815;BME280;73829;53.826;-3.034;2024-02-21T03:11:09;100835.41;;;17.43;56.91
83815;BME280;73829;53.826;-3.034;2024-02-21T03:13:40;100825.05;;;17.42;57.08
83815;BME280;73829;53.826;-3.034;2024-02-21T03:16:11;100814.74;;;17.40;56.98
83815;BME280;73829;53.826;-3.034;2024-02-21T03:18:40;100804.59;;;17.39;56.96
83815;BME280;73829;53.826;-3.034;2024-02-21T03:21:12;100794.71;;;17.40;56.98
83815;BME280;73829;53.826;-3.034;2024-02-21T03:23:43;100786.85;;;17.38;56.85
83815;BME280;73829;53.826;-3.034;2024-02-21T03:26:14;100772.64;;;17.37;56.99
83815;BME280;73829;53.826;-3.034;2024-02-21T03:28:46;100757.13;;;17.38;56.93
83815;BME280;73829;53.826;-3.034;2024-02-21T03:31:17;100748.55;;;17.42;56.80
83815;BME280;73829;53.826;-3.034;2024-02-21T03:33:48;100745.98;;;17.44;56.74
83815;BME280;73829;53.826;-3.034;2024-02-21T03:36:20;100735.02;;;17.46;56.86
83815;BME280;73829;53.826;-3.034;2024-02-21T03:38:51;100726.39;;;17.46;56.87
83815;BME280;73829;53.826;-3.034;2024-02-21T03:41:22;100725.45;;;17.47;56.55
83815;BME280;73829;53.826;-3.034;2024-02-21T03:43:53;100719.30;;;17.47;56.72
83815;BME280;73829;53.826;-3.034;2024-02-21T03:46:25;100705.75;;;17.47;56.79
83815;BME280;73829;53.826;-3.034;2024-02-21T03:48:56;100700.52;;;17.46;56.67
83815;BME280;73829;53.826;-3.034;2024-02-21T03:51:27;100693.31;;;17.46;56.68
83815;BME280;73829;53.826;-3.034;2024-02-21T03:53:58;100683.32;;;17.46;56.66
83815;BME280;73829;53.826;-3.034;2024-02-21T03:56:29;100673.67;;;17.45;56.71
83815;BME280;73829;53.826;-3.034;2024-02-21T03:59:00;100669.83;;;17.44;56.58
83815;BME280;73829;53.826;-3.034;2024-02-21T04:01:31;100665.12;;;17.43;56.55
83815;BME280;73829;53.826;-3.034;2024-02-21T04:04:03;100655.36;;;17.41;56.68
83815;BME280;73829;53.826;-3.034;2024-02-21T04:06:34;100645.15;;;17.42;56.68
83815;BME280;73829;53.826;-3.034;2024-02-21T04:09:05;100638.52;;;17.41;56.71
83815;BME280;73829;53.826;-3.034;2024-02-21T04:11:36;100625.89;;;17.40;56.76
83815;BME280;73829;53.826;-3.034;2024-02-21T04:14:07;100627.34;;;17.38;56.77
83815;BME280;73829;53.826;-3.034;2024-02-21T04:16:38;100623.30;;;17.38;56.71
83815;BME280;73829;53.826;-3.034;2024-02-21T04:19:09;100614.38;;;17.37;56.65
83815;BME280;73829;53.826;-3.034;2024-02-21T04:21:40;100609.14;;;17.36;56.60
83815;BME280;73829;53.826;-3.034;2024-02-21T04:24:11;100609.56;;;17.35;56.56
83815;BME280;73829;53.826;-3.034;2024-02-21T04:26:42;100597.96;;;17.35;56.64
83815;BME280;73829;53.826;-3.034;2024-02-21T04:29:14;100580.61;;;17.33;56.69
83815;BME280;73829;53.826;-3.034;2024-02-21T04:31:45;100567.44;;;17.33;56.73
83815;BME280;73829;53.826;-3.034;2024-02-21T04:34:16;100556.23;;;17.32;56.65
83815;BME280;73829;53.826;-3.034;2024-02-21T04:36:47;100537.42;;;17.32;56.62
83815;BME280;73829;53.826;-3.034;2024-02-21T04:39:18;100526.02;;;17.31;56.73
83815;BME280;73829;53.826;-3.034;2024-02-21T04:41:49;100519.73;;;17.30;56.71
83815;BME280;73829;53.826;-3.034;2024-02-21T04:44:20;100511.67;;;17.30;56.61
83815;BME280;73829;53.826;-3.034;2024-02-21T04:46:52;100498.58;;;17.31;56.75
83815;BME280;73829;53.826;-3.034;2024-02-21T04:49:23;100490.16;;;17.35;56.56
83815;BME280;73829;53.826;-3.034;2024-02-21T04:51:54;100486.23;;;17.36;56.45
83815;BME280;73829;53.826;-3.034;2024-02-21T04:54:25;100477.68;;;17.39;56.53
83815;BME280;73829;53.826;-3.034;2024-02-21T04:56:56;100470.25;;;17.40;56.45
83815;BME280;73829;53.826;-3.034;2024-02-21T04:59:27;100459.34;;;17.40;56.42
83815;BME280;73829;53.826;-3.034;2024-02-21T05:01:59;100445.44;;;17.40;56.27
83815;BME280;73829;53.826;-3.034;2024-02-21T05:04:30;100430.55;;;17.39;56.23
83815;BME280;73829;53.826;-3.034;2024-02-21T05:07:01;100418.79;;;17.38;56.53
83815;BME280;73829;53.826;-3.034;2024-02-21T05:09:32;100401.50;;;17.40;56.26
83815;BME280;73829;53.826;-3.034;2024-02-21T05:12:03;100390.84;;;17.38;56.37
83815;BME280;73829;53.826;-3.034;2024-02-21T05:14:34;100384.94;;;17.36;56.40
83815;BME280;73829;53.826;-3.034;2024-02-21T05:17:06;100383.91;;;17.36;56.29
83815;BME280;73829;53.826;-3.034;2024-02-21T05:19:37;100386.64;;;17.34;56.34
83815;BME280;73829;53.826;-3.034;2024-02-21T05:22:08;100386.70;;;17.32;56.42
83815;BME280;73829;53.826;-3.034;2024-02-21T05:24:40;100374.84;;;17.30;56.46
83815;BME280;73829;53.826;-3.034;2024-02-21T05:27:11;100353.04;;;17.30;56.32
83815;BME280;73829;53.826;-3.034;2024-02-21T05:29:42;100346.05;;;17.30;56.37
83815;BME280;73829;53.826;-3.034;2024-02-21T05:32:14;100340.46;;;17.29;56.52
83815;BME280;73829;53.826;-3.034;2024-02-21T05:34:48;100335.94;;;17.28;56.41
83815;BME280;73829;53.826;-3.034;2024-02-21T05:37:18;100331.95;;;17.27;56.54
83815;BME280;73829;53.826;-3.034;2024-02-21T05:39:50;100314.94;;;17.26;56.47
83815;BME280;73829;53.826;-3.034;2024-02-21T05:42:21;100303.21;;;17.25;56.39
83815;BME280;73829;53.826;-3.034;2024-02-21T05:44:52;100297.60;;;17.25;56.32
83815;BME280;73829;53.826;-3.034;2024-02-21T05:47:23;100289.56;;;17.23;56.40
83815;BME280;73829;53.826;-3.034;2024-02-21T05:49:54;100279.20;;;17.23;56.42
83815;BME280;73829;53.826;-3.034;2024-02-21T05:52:25;100277.85;;;17.22;56.55
83815;BME280;73829;53.826;-3.034;2024-02-21T05:54:56;100274.90;;;17.21;56.42
83815;BME280;73829;53.826;-3.034;2024-02-21T05:57:27;100269.32;;;17.20;56.39
83815;BME280;73829;53.826;-3.034;2024-02-21T05:59:58;100264.04;;;17.21;56.52
83815;BME280;73829;53.826;-3.034;2024-02-21T06:02:30;100250.04;;;17.20;56.70
83815;BME280;73829;53.826;-3.034;2024-02-21T06:05:01;100234.10;;;17.18;56.33
83815;BME280;73829;53.826;-3.034;2024-02-21T06:07:32;100227.09;;;17.18;56.36
83815;BME280;73829;53.826;-3.034;2024-02-21T06:10:03;100213.54;;;17.18;56.55
83815;BME280;73829;53.826;-3.034;2024-02-21T06:12:35;100201.29;;;17.17;56.48
83815;BME280;73829;53.826;-3.034;2024-02-21T06:15:07;100188.48;;;17.16;56.56
83815;BME280;73829;53.826;-3.034;2024-02-21T06:17:38;100178.16;;;17.19;56.46
83815;BME280;73829;53.826;-3.034;2024-02-21T06:20:08;100163.80;;;17.22;56.38
83815;BME280;73829;53.826;-3.034;2024-02-21T06:22:39;100143.90;;;17.25;56.38
83815;BME280;73829;53.826;-3.034;2024-02-21T06:25:11;100131.98;;;17.25;56.30
83815;BME280;73829;53.826;-3.034;2024-02-21T06:27:42;100129.33;;;17.25;56.23
83815;BME280;73829;53.826;-3.034;2024-02-21T06:30:14;100119.66;;;17.25;56.24
83815;BME280;73829;53.826;-3.034;2024-02-21T06:32:45;100110.86;;;17.25;56.20
83815;BME280;73829;53.826;-3.034;2024-02-21T06:35:16;100101.20;;;17.25;56.17
83815;BME280;73829;53.826;-3.034;2024-02-21T06:37:47;100098.64;;;17.24;56.17
83815;BME280;73829;53.826;-3.034;2024-02-21T06:40:22;100092.32;;;17.24;56.14
83815;BME280;73829;53.826;-3.034;2024-02-21T06:42:53;100083.77;;;17.22;56.33
83815;BME280;73829;53.826;-3.034;2024-02-21T06:45:24;100073.11;;;17.21;56.24
83815;BME280;73829;53.826;-3.034;2024-02-21T06:47:55;100067.45;;;17.22;56.20
83815;BME280;73829;53.826;-3.034;2024-02-21T06:50:26;100059.30;;;17.20;56.18
83815;BME280;73829;53.826;-3.034;2024-02-21T06:52:57;100046.65;;;17.20;56.10
83815;BME280;73829;53.826;-3.034;2024-02-21T06:55:28;100040.39;;;17.18;56.29
83815;BME280;73829;53.826;-3.034;2024-02-21T06:57:59;100026.52;;;17.18;56.31
83815;BME280;73829;53.826;-3.034;2024-02-21T07:00:31;100023.25;;;17.17;56.29
83815;BME280;73829;53.826;-3.034;2024-02-21T07:03:02;100023.48;;;17.15;56.41
83815;BME280;73829;53.826;-3.034;2024-02-21T07:05:33;100018.75;;;17.15;56.37
83815;BME280;73829;53.826;-3.034;2024-02-21T07:08:05;100002.47;;;17.13;56.21
83815;BME280;73829;53.826;-3.034;2024-02-21T07:10:36;99995.10;;;17.13;56.44
83815;BME280;73829;53.826;-3.034;2024-02-21T07:13:07;99990.41;;;17.12;56.35
83815;BME280;73829;53.826;-3.034;2024-02-21T07:15:36;99982.73;;;17.11;56.32
83815;BME280;73829;53.826;-3.034;2024-02-21T07:18:07;99973.71;;;17.12;56.30
83815;BME280;73829;53.826;-3.034;2024-02-21T07:20:38;99965.55;;;17.10;56.25
83815;BME280;73829;53.826;-3.034;2024-02-21T07:23:10;99955.40;;;17.10;56.20
83815;BME280;73829;53.826;-3.034;2024-02-21T07:25:42;99945.79;;;17.09;56.36
83815;BME280;73829;53.826;-3.034;2024-02-21T07:28:13;99938.63;;;17.08;56.28
83815;BME280;73829;53.826;-3.034;2024-02-21T07:30:46;99922.14;;;17.07;56.24
83815;BME280;73829;53.826;-3.034;2024-02-21T07:33:16;99909.88;;;17.07;56.31
83815;BME280;73829;53.826;-3.034;2024-02-21T07:35:47;99900.26;;;17.06;56.36
83815;BME280;73829;53.826;-3.034;2024-02-21T07:38:17;99893.08;;;17.05;56.41
83815;BME280;73829;53.826;-3.034;2024-02-21T07:40:48;99879.85;;;17.06;56.21
83815;BME280;73829;53.826;-3.034;2024-02-21T07:43:19;99870.83;;;17.04;56.43
83815;BME280;73829;53.826;-3.034;2024-02-21T07:45:52;99866.42;;;17.04;56.22
83815;BME280;73829;53.826;-3.034;2024-02-21T07:48:23;99857.33;;;17.04;56.32
83815;BME280;73829;53.826;-3.034;2024-02-21T07:50:56;99846.48;;;17.03;56.48
83815;BME280;73829;53.826;-3.034;2024-02-21T07:53:27;99836.69;;;17.02;56.40
83815;BME280;73829;53.826;-3.034;2024-02-21T07:55:58;99828.08;;;17.02;56.33
83815;BME280;73829;53.826;-3.034;2024-02-21T07:58:29;99820.44;;;17.00;56.34
83815;BME280;73829;53.826;-3.034;2024-02-21T08:00:58;99825.21;;;16.99;56.52
83815;BME280;73829;53.826;-3.034;2024-02-21T08:03:29;99818.90;;;17.02;56.58
83815;BME280;73829;53.826;-3.034;2024-02-21T08:06:00;99799.42;;;17.05;56.36
83815;BME280;73829;53.826;-3.034;2024-02-21T08:08:33;99784.38;;;17.07;56.36
83815;BME280;73829;53.826;-3.034;2024-02-21T08:11:05;99776.04;;;17.09;56.30
83815;BME280;73829;53.826;-3.034;2024-02-21T08:13:36;99774.06;;;17.09;56.15
83815;BME280;73829;53.826;-3.034;2024-02-21T08:16:07;99773.90;;;17.09;56.14
83815;BME280;73829;53.826;-3.034;2024-02-21T08:18:38;99761.23;;;17.09;56.25
83815;BME280;73829;53.826;-3.034;2024-02-21T08:21:08;99749.83;;;17.09;56.13
83815;BME280;73829;53.826;-3.034;2024-02-21T08:23:38;99744.48;;;17.10;56.10
83815;BME280;73829;53.826;-3.034;2024-02-21T08:26:09;99739.45;;;17.09;56.03
83815;BME280;73829;53.826;-3.034;2024-02-21T08:28:41;99726.84;;;17.08;56.18
83815;BME280;73829;53.826;-3.034;2024-02-21T08:31:12;99712.11;;;17.08;56.05
83815;BME280;73829;53.826;-3.034;2024-02-21T08:33:48;99692.13;;;17.07;56.24
83815;BME280;73829;53.826;-3.034;2024-02-21T08:36:23;99689.73;;;17.06;56.18
83815;BME280;73829;53.826;-3.034;2024-02-21T08:38:54;99695.24;;;17.05;56.30
83815;BME280;73829;53.826;-3.034;2024-02-21T08:41:26;99686.21;;;17.03;56.16
83815;BME280;73829;53.826;-3.034;2024-02-21T08:43:57;99684.84;;;17.02;56.28
83815;BME280;73829;53.826;-3.034;2024-02-21T08:46:28;99676.44;;;17.02;56.46
83815;BME280;73829;53.826;-3.034;2024-02-21T08:48:59;99670.11;;;17.02;56.46
83815;BME280;73829;53.826;-3.034;2024-02-21T08:51:30;99660.48;;;17.01;56.68
83815;BME280;73829;53.826;-3.034;2024-02-21T08:54:01;99655.33;;;17.02;57.27
83815;BME280;73829;53.826;-3.034;2024-02-21T08:56:33;99646.33;;;17.06;57.69
83815;BME280;73829;53.826;-3.034;2024-02-21T08:59:04;99626.03;;;17.10;57.78
83815;BME280;73829;53.826;-3.034;2024-02-21T09:01:35;99609.88;;;17.13;57.86
83815;BME280;73829;53.826;-3.034;2024-02-21T09:04:06;99603.27;;;17.15;57.79
83815;BME280;73829;53.826;-3.034;2024-02-21T09:06:37;99590.83;;;17.18;58.20
83815;BME280;73829;53.826;-3.034;2024-02-21T09:09:11;99583.08;;;17.18;58.21
83815;BME280;73829;53.826;-3.034;2024-02-21T09:11:42;99579.20;;;17.18;58.08
83815;BME280;73829;53.826;-3.034;2024-02-21T09:14:13;99567.39;;;17.19;58.04
83815;BME280;73829;53.826;-3.034;2024-02-21T09:16:45;99568.27;;;17.19;58.26
83815;BME280;73829;53.826;-3.034;2024-02-21T09:19:16;99556.48;;;17.19;58.08
83815;BME280;73829;53.826;-3.034;2024-02-21T09:21:48;99545.56;;;17.19;58.10
83815;BME280;73829;53.826;-3.034;2024-02-21T09:24:18;99534.44;;;17.20;57.99
83815;BME280;73829;53.826;-3.034;2024-02-21T09:26:49;99524.30;;;17.22;57.77
83815;BME280;73829;53.826;-3.034;2024-02-21T09:29:20;99516.10;;;17.24;57.59
83815;BME280;73829;53.826;-3.034;2024-02-21T09:31:51;99500.84;;;17.27;57.59
83815;BME280;73829;53.826;-3.034;2024-02-21T09:34:22;99479.80;;;17.31;57.62
83815;BME280;73829;53.826;-3.034;2024-02-21T09:36:54;99472.06;;;17.37;57.56
83815;BME280;73829;53.826;-3.034;2024-02-21T09:39:25;99469.70;;;17.41;57.50
83815;BME280;73829;53.826;-3.034;2024-02-21T09:42:02;99463.77;;;17.43;57.76
83815;BME280;73829;53.826;-3.034;2024-02-21T09:44:37;99457.38;;;17.44;57.80
83815;BME280;73829;53.826;-3.034;2024-02-21T09:47:13;99446.83;;;17.44;57.85
83815;BME280;73829;53.826;-3.034;2024-02-21T09:49:49;99440.34;;;17.44;57.64
83815;BME280;73829;53.826;-3.034;2024-02-21T09:52:20;99426.66;;;17.43;57.93
83815;BME280;73829;53.826;-3.034;2024-02-21T09:54:53;99420.88;;;17.43;57.72
83815;BME280;73829;53.826;-3.034;2024-02-21T09:57:26;99407.55;;;17.43;57.95
83815;BME280;73829;53.826;-3.034;2024-02-21T09:59:58;99406.73;;;17.42;57.99
83815;BME280;73829;53.826;-3.034;2024-02-21T10:02:37;99398.34;;;17.41;58.06
83815;BME280;73829;53.826;-3.034;2024-02-21T10:05:09;99389.47;;;17.39;57.92
83815;BME280;73829;53.826;-3.034;2024-02-21T10:07:40;99386.14;;;17.39;58.02
83815;BME280;73829;53.826;-3.034;2024-02-21T10:10:12;99378.36;;;17.40;57.98
83815;BME280;73829;53.826;-3.034;2024-02-21T10:12:50;99363.81;;;17.39;57.94
83815;BME280;73829;53.826;-3.034;2024-02-21T10:15:24;99361.70;;;17.39;57.91
83815;BME280;73829;53.826;-3.034;2024-02-21T10:18:01;99355.73;;;17.42;58.09
83815;BME280;73829;53.826;-3.034;2024-02-21T10:20:33;99346.33;;;17.46;58.11
83815;BME280;73829;53.826;-3.034;2024-02-21T10:23:05;99341.64;;;17.50;57.82
83815;BME280;73829;53.826;-3.034;2024-02-21T10:25:38;99336.45;;;17.51;57.70
83815;BME280;73829;53.826;-3.034;2024-02-21T10:28:15;99332.37;;;17.52;57.81
83815;BME280;73829;53.826;-3.034;2024-02-21T10:30:52;99329.51;;;17.53;57.89
83815;BME280;73829;53.826;-3.034;2024-02-21T10:33:23;99321.96;;;17.53;57.87
83815;BME280;73829;53.826;-3.034;2024-02-21T10:36:07;99320.58;;;17.52;57.80
83815;BME280;73829;53.826;-3.034;2024-02-21T10:38:40;99320.70;;;17.53;57.71
83815;BME280;73829;53.826;-3.034;2024-02-21T10:41:15;99316.20;;;17.52;57.63
83815;BME280;73829;53.826;-3.034;2024-02-21T10:43:51;99304.84;;;17.51;57.94
83815;BME280;73829;53.826;-3.034;2024-02-21T10:46:24;99304.21;;;17.50;57.85
83815;BME280;73829;53.826;-3.034;2024-02-21T10:49:04;99294.77;;;17.49;57.91
83815;BME280;73829;53.826;-3.034;2024-02-21T10:51:40;99281.28;;;17.48;57.87
83815;BME280;73829;53.826;-3.034;2024-02-21T10:54:24;99280.23;;;17.48;57.88
83815;BME280;73829;53.826;-3.034;2024-02-21T10:57:02;99274.40;;;17.49;57.78
83815;BME280;73829;53.826;-3.034;2024-02-21T10:59:33;99273.50;;;17.49;57.88
83815;BME280;73829;53.826;-3.034;2024-02-21T11:02:06;99273.52;;;17.51;57.83
83815;BME280;73829;53.826;-3.034;2024-02-21T11:04:37;99263.09;;;17.55;57.82
83815;BME280;73829;53.826;-3.034;2024-02-21T11:07:10;99254.11;;;17.58;57.99
83815;BME280;73829;53.826;-3.034;2024-02-21T11:09:50;99252.44;;;17.59;57.70
83815;BME280;73829;53.826;-3.034;2024-02-21T11:12:23;99245.90;;;17.59;57.69
83815;BME280;73829;53.826;-3.034;2024-02-21T11:15:05;99241.54;;;17.59;57.92
83815;BME280;73829;53.826;-3.034;2024-02-21T11:17:36;99238.05;;;17.59;57.97
83815;BME280;73829;53.826;-3.034;2024-02-21T11:20:16;99227.91;;;17.57;57.78
83815;BME280;73829;53.826;-3.034;2024-02-21T11:22:48;99226.81;;;17.56;57.81
83815;BME280;73829;53.826;-3.034;2024-02-21T11:25:24;99228.27;;;17.55;57.91
83815;BME280;73829;53.826;-3.034;2024-02-21T11:28:02;99219.45;;;17.53;58.00
83815;BME280;73829;53.826;-3.034;2024-02-21T11:30:36;99220.55;;;17.52;57.98
83815;BME280;73829;53.826;-3.034;2024-02-21T11:33:08;99218.69;;;17.51;57.88
83815;BME280;73829;53.826;-3.034;2024-02-21T11:35:39;99215.67;;;17.52;57.83
83815;BME280;73829;53.826;-3.034;2024-02-21T11:38:12;99210.65;;;17.53;57.65
83815;BME280;73829;53.826;-3.034;2024-02-21T11:40:46;99212.78;;;17.55;57.74
83815;BME280;73829;53.826;-3.034;2024-02-21T11:43:18;99212.36;;;17.56;57.75
83815;BME280;73829;53.826;-3.034;2024-02-21T11:45:48;99211.91;;;17.58;57.67
83815;BME280;73829;53.826;-3.034;2024-02-21T11:48:18;99209.15;;;17.60;57.87
83815;BME280;73829;53.826;-3.034;2024-02-21T11:50:55;99209.96;;;17.63;57.80
83815;BME280;73829;53.826;-3.034;2024-02-21T11:53:26;99209.95;;;17.64;57.82
83815;BME280;73829;53.826;-3.034;2024-02-21T11:56:00;99215.53;;;17.64;57.63
83815;BME280;73829;53.826;-3.034;2024-02-21T11:58:31;99212.16;;;17.65;57.77
83815;BME280;73829;53.826;-3.034;2024-02-21T12:01:04;99208.89;;;17.64;57.68
83815;BME280;73829;53.826;-3.034;2024-02-21T12:03:37;99202.30;;;17.62;57.68
83815;BME280;73829;53.826;-3.034;2024-02-21T12:06:09;99203.07;;;17.61;57.85
83815;BME280;73829;53.826;-3.034;2024-02-21T12:08:44;99203.15;;;17.60;57.50
83815;BME280;73829;53.826;-3.034;2024-02-21T12:11:22;99187.98;;;17.58;57.72
83815;BME280;73829;53.826;-3.034;2024-02-21T12:14:03;99187.98;;;17.58;57.76
83815;BME280;73829;53.826;-3.034;2024-02-21T12:16:35;99184.87;;;17.57;57.61
83815;BME280;73829;53.826;-3.034;2024-02-21T12:19:07;99180.11;;;17.57;57.59
83815;BME280;73829;53.826;-3.034;2024-02-21T12:21:38;99176.48;;;17.56;57.59
83815;BME280;73829;53.826;-3.034;2024-02-21T12:24:17;99172.99;;;17.56;57.78
83815;BME280;73829;53.826;-3.034;2024-02-21T12:26:51;99176.23;;;17.55;57.78
83815;BME280;73829;53.826;-3.034;2024-02-21T12:29:23;99174.47;;;17.55;57.84
83815;BME280;73829;53.826;-3.034;2024-02-21T12:31:55;99172.85;;;17.55;57.94
83815;BME280;73829;53.826;-3.034;2024-02-21T12:34:27;99167.45;;;17.55;57.95
83815;BME280;73829;53.826;-3.034;2024-02-21T12:37:03;99167.32;;;17.57;57.89
83815;BME280;73829;53.826;-3.034;2024-02-21T12:39:34;99166.97;;;17.59;57.92
83815;BME280;73829;53.826;-3.034;2024-02-21T12:42:06;99164.16;;;17.62;57.89
83815;BME280;73829;53.826;-3.034;2024-02-21T12:44:38;99163.55;;;17.64;57.89
83815;BME280;73829;53.826;-3.034;2024-02-21T12:47:09;99160.86;;;17.64;57.87
83815;BME280;73829;53.826;-3.034;2024-02-21T12:49:41;99158.07;;;17.64;57.66
83815;BME280;73829;53.826;-3.034;2024-02-21T12:52:12;99159.94;;;17.65;57.87
83815;BME280;73829;53.826;-3.034;2024-02-21T12:54:45;99165.08;;;17.64;57.79
83815;BME280;73829;53.826;-3.034;2024-02-21T12:57:17;99159.87;;;17.63;57.74
83815;BME280;73829;53.826;-3.034;2024-02-21T12:59:48;99157.95;;;17.63;57.77
83815;BME280;73829;53.826;-3.034;2024-02-21T13:02:20;99159.08;;;17.61;57.61
83815;BME280;73829;53.826;-3.034;2024-02-21T13:04:51;99159.13;;;17.60;57.70
83815;BME280;73829;53.826;-3.034;2024-02-21T13:07:23;99158.02;;;17.59;57.84
83815;BME280;73829;53.826;-3.034;2024-02-21T13:09:54;99162.27;;;17.58;57.95